Decoded Metar for UKBB (KIEV in UKRAINE) (IATA:KBP) | Meteo·Mobile Aviation Weather
aviador You're here:

UKBB Decoded Metar

KIEV in UKRAINE
Report Time2019-04-19 22:30:00
UTC Time2019-04-19 22:49:28
Flight Rules vfr VFR
Wind310° at 2 kt
W.Decomp.*RWY 36: 1.1 kt HW 1.6 kt LCW
Visibility9999 m
Phenomena:N/A
Clouds:N/A
CeilingNone
Temp00°C (ISA -14)
Dew Point00°C (100% RH)
AAT-2.7°C
QNH1028 hPa
Density Alt-1,772 ft
Elevation390 ft
Report Wrong Elevation
Raw Report
METAR UKBB 192230Z 31001MPS CAVOK 00/M00 Q1028 R88/D NOSIG=

Extra information for UKBB:More info

Metar Taf Metar & Taf Last 4 Metars F.Rules Stats Wind Profile Meteogram Temp Stats Airport Information Weather charts Add Link Nearby VenuesMetar ALERT Operation Metar Decoded Social comments